Time;durP1;ratioP1;P1;durP2;ratioP2;P2;SDS_P1;SDS_P2;PMS_P1;PMS_P2;Temp;Humidity;BMP_temperature;BMP_pressure;BME280_temperature;BME280_humidity;BME280_pressure;Samples;Min_cycle;Max_cycle;Signal;HPM_P1;HPM_P2
2021/05/25 00:01:19;;;;;;;9.75;3.08;;;;;;;;;;4935363;29;20031;-46
2021/05/25 00:03:46;;;;;;;7.93;2.72;;;;;;;;;;4934973;29;20107;-43
2021/05/25 00:06:13;;;;;;;7.90;2.85;;;;;;;;;;4934541;29;20036;-44
2021/05/25 00:08:40;;;;;;;9.55;2.92;;;;;;;;;;4935145;29;20024;-43
2021/05/25 00:11:08;;;;;;;8.40;3.17;;;;;;;;;;4935390;29;20448;-43
2021/05/25 00:13:35;;;;;;;11.00;3.20;;;;;;;;;;4934621;29;20424;-44
2021/05/25 00:16:02;;;;;;;12.82;3.40;;;;;;;;;;4935129;29;20091;-51
2021/05/25 00:18:29;;;;;;;23.83;3.95;;;;;;;;;;4934695;29;20051;-47
2021/05/25 00:20:57;;;;;;;16.80;3.50;;;;;;;;;;4934833;29;20428;-44
2021/05/25 00:23:24;;;;;;;14.57;3.92;;;;;;;;;;4934520;29;20027;-49
2021/05/25 00:25:51;;;;;;;13.52;3.60;;;;;;;;;;4935191;29;20051;-48
2021/05/25 00:28:20;;;;;;;15.80;3.20;;;;;;;;;;4934233;29;20035;-47
2021/05/25 00:30:48;;;;;;;14.75;3.58;;;;;;;;;;4934403;29;20075;-45
2021/05/25 00:33:15;;;;;;;16.67;3.33;;;;;;;;;;4935452;29;20040;-46
2021/05/25 00:35:42;;;;;;;19.70;4.03;;;;;;;;;;4934826;29;20102;-45
2021/05/25 00:38:11;;;;;;;12.32;3.40;;;;;;;;;;4934681;29;20031;-45
2021/05/25 00:40:39;;;;;;;14.85;3.75;;;;;;;;;;4934871;29;20040;-44
2021/05/25 00:43:06;;;;;;;17.27;3.95;;;;;;;;;;4934635;29;20460;-43
2021/05/25 00:45:33;;;;;;;21.15;4.07;;;;;;;;;;4934417;29;20111;-45
2021/05/25 00:48:00;;;;;;;15.57;4.00;;;;;;;;;;4934492;29;20020;-45
2021/05/25 00:50:28;;;;;;;21.40;4.35;;;;;;;;;;4934123;29;20588;-45
2021/05/25 00:53:00;;;;;;;22.88;4.05;;;;;;;;;;4934500;29;20075;-44
2021/05/25 00:55:31;;;;;;;23.48;5.00;;;;;;;;;;4934477;29;20051;-47
2021/05/25 00:57:59;;;;;;;22.02;4.40;;;;;;;;;;4934784;29;20110;-50
2021/05/25 01:00:32;;;;;;;19.77;4.45;;;;;;;;;;4934423;29;20023;-45
2021/05/25 01:02:59;;;;;;;19.98;5.15;;;;;;;;;;4934164;29;20531;-44
2021/05/25 01:05:26;;;;;;;25.60;5.50;;;;;;;;;;4931990;29;20483;-44
2021/05/25 01:07:53;;;;;;;26.42;6.70;;;;;;;;;;4933066;29;20574;-45
2021/05/25 01:10:28;;;;;;;23.67;5.75;;;;;;;;;;4932924;29;20086;-43
2021/05/25 01:13:00;;;;;;;24.30;6.07;;;;;;;;;;4931657;29;20392;-44
2021/05/25 01:15:28;;;;;;;26.45;6.63;;;;;;;;;;4932666;29;20050;-43
2021/05/25 01:17:57;;;;;;;26.20;6.25;;;;;;;;;;4933197;29;20078;-45
2021/05/25 01:20:25;;;;;;;30.90;6.28;;;;;;;;;;4932500;29;20067;-45
2021/05/25 01:22:52;;;;;;;22.83;6.07;;;;;;;;;;4933589;29;20026;-45
2021/05/25 01:25:20;;;;;;;22.13;5.60;;;;;;;;;;4943573;29;20034;-44
2021/05/25 01:27:57;;;;;;;18.17;5.15;;;;;;;;;;4931634;29;20491;-42
2021/05/25 01:30:26;;;;;;;21.38;5.93;;;;;;;;;;4932793;29;20439;-45
2021/05/25 01:32:53;;;;;;;20.60;5.50;;;;;;;;;;4934024;29;20020;-43
2021/05/25 01:35:20;;;;;;;23.75;5.30;;;;;;;;;;4933150;29;20135;-45
2021/05/25 01:37:48;;;;;;;23.02;5.60;;;;;;;;;;4933625;29;20111;-42
2021/05/25 01:40:16;;;;;;;22.80;5.00;;;;;;;;;;4933725;29;20059;-44
2021/05/25 01:42:43;;;;;;;22.15;5.45;;;;;;;;;;4933102;29;20050;-42
2021/05/25 01:45:13;;;;;;;18.27;5.32;;;;;;;;;;4932483;29;20464;-43
2021/05/25 01:47:40;;;;;;;23.38;4.95;;;;;;;;;;4931046;29;20032;-46
2021/05/25 01:50:14;;;;;;;16.08;4.80;;;;;;;;;;4932621;29;20059;-44
2021/05/25 01:52:51;;;;;;;16.65;4.90;;;;;;;;;;4933230;29;20023;-47
2021/05/25 01:55:44;;;;;;;20.90;5.97;;;;;;;;;;4930554;29;20107;-48
2021/05/25 01:58:11;;;;;;;16.45;5.22;;;;;;;;;;4906032;29;20412;-42
2021/05/25 02:00:39;;;;;;;20.92;4.68;;;;;;;;;;4914279;29;20036;-47
2021/05/25 02:03:07;;;;;;;22.65;4.55;;;;;;;;;;4914965;29;20043;-47
2021/05/25 02:05:35;;;;;;;15.32;4.35;;;;;;;;;;4912505;29;20071;-42
2021/05/25 02:08:02;;;;;;;14.48;4.07;;;;;;;;;;4916705;29;20020;-47
2021/05/25 02:10:31;;;;;;;22.38;4.60;;;;;;;;;;4917449;29;20044;-46
2021/05/25 02:13:01;;;;;;;17.70;4.07;;;;;;;;;;4918321;29;20024;-46
2021/05/25 02:15:28;;;;;;;17.65;3.55;;;;;;;;;;4917514;29;20107;-43
2021/05/25 02:17:55;;;;;;;13.57;4.00;;;;;;;;;;4934538;29;20032;-44
2021/05/25 02:20:22;;;;;;;17.45;4.22;;;;;;;;;;4936350;29;20036;-44
2021/05/25 02:22:49;;;;;;;15.07;4.15;;;;;;;;;;4937017;29;20086;-44
2021/05/25 02:25:17;;;;;;;17.08;4.30;;;;;;;;;;4936328;29;20488;-47
2021/05/25 02:27:44;;;;;;;15.18;3.75;;;;;;;;;;4937282;29;20024;-50
2021/05/25 02:30:11;;;;;;;15.82;3.70;;;;;;;;;;4935821;29;20047;-53
2021/05/25 02:32:38;;;;;;;15.75;3.92;;;;;;;;;;4937290;29;20024;-49
2021/05/25 02:35:05;;;;;;;13.15;3.85;;;;;;;;;;4918582;29;20383;-47
2021/05/25 02:37:33;;;;;;;10.82;3.20;;;;;;;;;;4935750;29;20202;-50
2021/05/25 02:40:01;;;;;;;17.00;3.40;;;;;;;;;;4935994;29;20070;-50
2021/05/25 02:42:28;;;;;;;17.38;3.38;;;;;;;;;;4931995;29;20056;-44
2021/05/25 02:44:55;;;;;;;12.18;3.13;;;;;;;;;;4935410;29;20024;-49
2021/05/25 02:47:22;;;;;;;12.82;3.33;;;;;;;;;;4935283;29;20408;-46
2021/05/25 02:49:49;;;;;;;19.85;3.45;;;;;;;;;;4936178;29;20020;-44
2021/05/25 02:52:17;;;;;;;17.25;3.28;;;;;;;;;;4935916;29;20012;-43
2021/05/25 02:54:44;;;;;;;10.10;2.90;;;;;;;;;;4933781;29;20120;-41
2021/05/25 02:57:11;;;;;;;18.52;3.22;;;;;;;;;;4935308;29;20059;-41
2021/05/25 02:59:38;;;;;;;9.40;2.90;;;;;;;;;;4936302;29;20472;-43
2021/05/25 03:02:05;;;;;;;12.32;3.05;;;;;;;;;;4936018;29;20067;-42
2021/05/25 03:04:33;;;;;;;18.10;3.03;;;;;;;;;;4929879;29;20047;-43
2021/05/25 03:07:00;;;;;;;16.35;3.22;;;;;;;;;;4935573;29;20035;-44
2021/05/25 03:09:29;;;;;;;10.40;2.60;;;;;;;;;;4936747;29;20032;-47
2021/05/25 03:11:56;;;;;;;9.30;2.50;;;;;;;;;;4935296;29;20512;-45
2021/05/25 03:14:24;;;;;;;11.43;2.80;;;;;;;;;;4936882;29;20023;-45
2021/05/25 03:16:51;;;;;;;12.07;2.58;;;;;;;;;;4936291;29;20048;-43
2021/05/25 03:19:18;;;;;;;22.27;2.97;;;;;;;;;;4934101;29;20028;-43
2021/05/25 03:21:45;;;;;;;19.75;2.70;;;;;;;;;;4936152;29;20071;-41
2021/05/25 03:24:12;;;;;;;11.57;2.75;;;;;;;;;;4935721;29;20027;-41
2021/05/25 03:26:39;;;;;;;15.05;2.90;;;;;;;;;;4933342;29;20023;-41
2021/05/25 03:29:06;;;;;;;13.82;2.78;;;;;;;;;;4935588;29;20495;-40
2021/05/25 03:31:34;;;;;;;11.73;2.83;;;;;;;;;;4936325;29;20016;-41
2021/05/25 03:34:01;;;;;;;10.23;2.85;;;;;;;;;;4935398;29;20028;-40
2021/05/25 03:36:28;;;;;;;10.00;2.83;;;;;;;;;;4933858;29;20016;-41
2021/05/25 03:38:55;;;;;;;6.88;2.45;;;;;;;;;;4935795;29;20103;-41
2021/05/25 03:41:22;;;;;;;8.82;2.45;;;;;;;;;;4935875;29;20031;-40
2021/05/25 03:43:49;;;;;;;14.57;2.50;;;;;;;;;;4933174;29;20044;-40
2021/05/25 03:46:16;;;;;;;8.57;2.70;;;;;;;;;;4935907;29;20074;-42
2021/05/25 03:48:43;;;;;;;10.10;2.42;;;;;;;;;;4934421;29;20139;-43
2021/05/25 03:51:10;;;;;;;10.13;2.50;;;;;;;;;;4932526;29;20016;-41
2021/05/25 03:53:37;;;;;;;7.63;2.63;;;;;;;;;;4934380;29;20024;-43
2021/05/25 03:58:51;;;;;;;14.20;2.47;;;;;;;;;;4925126;29;20527;-41
2021/05/25 04:01:22;;;;;;;8.73;2.30;;;;;;;;;;4918500;29;20032;-43
2021/05/25 04:03:53;;;;;;;12.65;2.30;;;;;;;;;;4935007;29;20024;-40
2021/05/25 04:06:20;;;;;;;11.70;2.25;;;;;;;;;;4920633;29;20079;-42
2021/05/25 04:08:48;;;;;;;17.42;2.63;;;;;;;;;;4917247;29;20028;-41
2021/05/25 04:11:16;;;;;;;8.63;2.30;;;;;;;;;;4916711;29;20139;-43
2021/05/25 04:13:44;;;;;;;9.77;2.35;;;;;;;;;;4917152;29;20017;-45
2021/05/25 04:16:14;;;;;;;9.02;2.45;;;;;;;;;;4931612;29;20111;-44
2021/05/25 04:18:42;;;;;;;12.52;3.20;;;;;;;;;;4936527;29;20051;-44
2021/05/25 04:21:09;;;;;;;24.35;2.55;;;;;;;;;;4936232;29;20579;-45
2021/05/25 04:23:37;;;;;;;15.55;2.13;;;;;;;;;;4936269;29;20079;-45
2021/05/25 04:26:04;;;;;;;12.32;2.40;;;;;;;;;;4936340;29;20023;-41
2021/05/25 04:28:31;;;;;;;13.20;2.47;;;;;;;;;;4936098;29;20027;-41
2021/05/25 04:30:58;;;;;;;12.63;2.42;;;;;;;;;;4931104;29;20038;-40
2021/05/25 04:33:26;;;;;;;13.88;2.20;;;;;;;;;;4917279;29;20052;-41
2021/05/25 04:35:53;;;;;;;15.20;2.15;;;;;;;;;;4916987;29;20024;-40
2021/05/25 04:38:20;;;;;;;18.58;2.47;;;;;;;;;;4917074;29;20091;-42
2021/05/25 04:40:48;;;;;;;8.98;2.33;;;;;;;;;;4917127;29;20032;-41
2021/05/25 04:43:15;;;;;;;9.85;2.72;;;;;;;;;;4915554;29;20467;-41
2021/05/25 04:45:43;;;;;;;10.20;2.35;;;;;;;;;;4916947;29;20024;-42
2021/05/25 04:48:11;;;;;;;10.45;2.33;;;;;;;;;;4916988;29;20138;-41
2021/05/25 04:50:39;;;;;;;12.10;2.22;;;;;;;;;;4917065;29;20103;-44
2021/05/25 04:53:06;;;;;;;12.00;2.10;;;;;;;;;;4916725;29;20388;-44
2021/05/25 04:55:33;;;;;;;9.65;2.08;;;;;;;;;;4916734;29;20102;-43
2021/05/25 04:58:00;;;;;;;9.77;2.10;;;;;;;;;;4923361;29;20028;-43
2021/05/25 05:00:28;;;;;;;11.95;2.25;;;;;;;;;;4930130;29;20114;-44
2021/05/25 05:02:56;;;;;;;12.30;2.22;;;;;;;;;;4933432;29;20028;-43
2021/05/25 05:05:24;;;;;;;8.52;1.75;;;;;;;;;;4916774;29;20539;-44
2021/05/25 05:07:51;;;;;;;9.93;1.98;;;;;;;;;;4916564;29;20069;-44
2021/05/25 05:10:18;;;;;;;11.02;1.75;;;;;;;;;;4924489;29;20039;-44
2021/05/25 05:12:45;;;;;;;8.82;1.73;;;;;;;;;;4937283;29;20450;-44
2021/05/25 05:15:16;;;;;;;7.43;2.63;;;;;;;;;;4941494;29;20043;-44
2021/05/25 05:17:43;;;;;;;7.15;1.90;;;;;;;;;;4935161;29;20480;-41
2021/05/25 05:20:11;;;;;;;10.57;1.70;;;;;;;;;;4934766;29;20036;-41
2021/05/25 05:22:39;;;;;;;7.85;2.17;;;;;;;;;;4935135;29;20031;-40
2021/05/25 05:25:07;;;;;;;6.63;1.73;;;;;;;;;;4933161;29;20074;-40
2021/05/25 05:27:34;;;;;;;8.07;1.75;;;;;;;;;;4934988;29;20031;-40
2021/05/25 05:30:01;;;;;;;8.68;1.80;;;;;;;;;;4934498;29;20027;-42
2021/05/25 05:32:28;;;;;;;6.60;1.80;;;;;;;;;;4935099;29;20049;-42
2021/05/25 05:34:55;;;;;;;6.18;1.45;;;;;;;;;;4934664;29;20024;-40
2021/05/25 05:37:22;;;;;;;6.00;2.10;;;;;;;;;;4934706;29;20558;-40
2021/05/25 05:39:49;;;;;;;4.47;1.27;;;;;;;;;;4934356;29;20028;-43
2021/05/25 05:42:16;;;;;;;9.68;1.92;;;;;;;;;;4936458;29;20043;-44
2021/05/25 05:44:44;;;;;;;5.45;1.20;;;;;;;;;;4939078;29;20023;-48
2021/05/25 05:47:11;;;;;;;8.98;1.70;;;;;;;;;;4938270;29;20039;-46
2021/05/25 05:49:39;;;;;;;3.22;1.10;;;;;;;;;;4938761;29;20380;-43
2021/05/25 05:52:06;;;;;;;7.18;1.40;;;;;;;;;;4938420;29;20028;-46
2021/05/25 05:54:33;;;;;;;5.22;1.65;;;;;;;;;;4938660;29;20023;-42
2021/05/25 05:57:00;;;;;;;7.93;1.95;;;;;;;;;;4937877;29;20101;-44
2021/05/25 05:59:27;;;;;;;6.15;1.50;;;;;;;;;;4938825;29;20480;-45
2021/05/25 06:01:54;;;;;;;4.03;1.50;;;;;;;;;;4937942;29;20067;-44
2021/05/25 06:04:21;;;;;;;5.88;1.30;;;;;;;;;;4938597;29;20489;-44
2021/05/25 06:06:48;;;;;;;5.65;1.50;;;;;;;;;;4938005;29;20032;-44
2021/05/25 06:09:15;;;;;;;5.53;1.38;;;;;;;;;;4937148;29;20103;-45
2021/05/25 06:11:42;;;;;;;4.10;1.00;;;;;;;;;;4937638;29;20075;-43
2021/05/25 06:14:10;;;;;;;4.68;1.20;;;;;;;;;;4938553;29;20031;-43
2021/05/25 06:16:37;;;;;;;4.15;1.17;;;;;;;;;;4937713;29;20079;-44
2021/05/25 06:19:04;;;;;;;4.10;1.20;;;;;;;;;;4937030;29;20032;-43
2021/05/25 06:21:31;;;;;;;3.85;1.30;;;;;;;;;;4937820;29;20076;-40
2021/05/25 06:23:58;;;;;;;5.47;1.20;;;;;;;;;;4938067;29;20028;-40
2021/05/25 06:26:25;;;;;;;5.15;1.30;;;;;;;;;;4937368;29;20030;-39
2021/05/25 06:28:52;;;;;;;3.92;1.20;;;;;;;;;;4938355;29;20020;-40
2021/05/25 06:31:19;;;;;;;4.30;1.17;;;;;;;;;;4936871;29;20063;-40
2021/05/25 06:33:46;;;;;;;2.55;1.15;;;;;;;;;;4937480;29;20036;-40
2021/05/25 06:36:13;;;;;;;3.17;1.05;;;;;;;;;;4938101;29;20024;-41
2021/05/25 06:38:40;;;;;;;5.70;1.63;;;;;;;;;;4937249;29;20027;-41
2021/05/25 06:41:07;;;;;;;4.28;1.08;;;;;;;;;;4937721;29;20480;-40
2021/05/25 06:43:34;;;;;;;4.80;1.30;;;;;;;;;;4937516;29;20028;-39
2021/05/25 06:46:01;;;;;;;4.88;1.30;;;;;;;;;;4937673;29;20384;-41
2021/05/25 06:48:28;;;;;;;6.38;1.13;;;;;;;;;;4937091;29;20079;-40
2021/05/25 06:50:55;;;;;;;3.70;1.30;;;;;;;;;;4937958;29;20027;-40
2021/05/25 06:53:23;;;;;;;3.42;1.13;;;;;;;;;;4936724;29;20023;-43
2021/05/25 06:55:50;;;;;;;3.65;1.20;;;;;;;;;;4937561;29;20035;-40
2021/05/25 06:58:17;;;;;;;1.95;0.95;;;;;;;;;;4937182;29;20143;-42
2021/05/25 07:00:44;;;;;;;3.53;1.10;;;;;;;;;;4937316;29;20492;-40
2021/05/25 07:03:11;;;;;;;7.65;1.10;;;;;;;;;;4937128;29;20046;-42
2021/05/25 07:05:38;;;;;;;3.45;1.15;;;;;;;;;;4937506;29;20471;-41
2021/05/25 07:08:05;;;;;;;3.00;1.15;;;;;;;;;;4936714;29;20027;-42
2021/05/25 07:10:32;;;;;;;9.82;1.30;;;;;;;;;;4937219;29;20491;-40
2021/05/25 07:12:59;;;;;;;4.40;1.17;;;;;;;;;;4937503;29;20032;-40
2021/05/25 07:15:26;;;;;;;6.88;1.33;;;;;;;;;;4935657;29;20067;-40
2021/05/25 07:17:57;;;;;;;3.22;1.10;;;;;;;;;;4935664;29;20027;-40
2021/05/25 07:20:24;;;;;;;2.80;1.10;;;;;;;;;;4936595;29;20039;-40
2021/05/25 07:22:54;;;;;;;3.45;1.05;;;;;;;;;;4937184;29;20043;-39
2021/05/25 07:25:22;;;;;;;3.47;1.00;;;;;;;;;;4936573;29;20042;-42
2021/05/25 07:27:49;;;;;;;2.63;1.13;;;;;;;;;;4935563;29;20023;-41
2021/05/25 07:30:16;;;;;;;2.50;0.80;;;;;;;;;;4935335;29;20408;-40
2021/05/25 07:32:43;;;;;;;2.47;0.73;;;;;;;;;;4937045;29;20066;-39
2021/05/25 07:35:11;;;;;;;4.68;0.93;;;;;;;;;;4936494;29;20044;-41
2021/05/25 07:37:39;;;;;;;2.60;0.75;;;;;;;;;;4935446;29;20056;-40
2021/05/25 07:40:07;;;;;;;1.70;0.88;;;;;;;;;;4936564;29;20472;-41
2021/05/25 07:42:34;;;;;;;3.45;1.08;;;;;;;;;;4936815;29;20035;-40
2021/05/25 07:45:01;;;;;;;1.25;0.70;;;;;;;;;;4936392;29;20028;-41
2021/05/25 07:47:29;;;;;;;2.53;0.98;;;;;;;;;;4936650;29;20031;-40
2021/05/25 07:49:56;;;;;;;2.85;1.10;;;;;;;;;;4935920;29;20030;-41
2021/05/25 07:52:24;;;;;;;2.42;0.70;;;;;;;;;;4936642;29;20031;-40
2021/05/25 07:54:51;;;;;;;4.25;0.75;;;;;;;;;;4936039;29;20028;-40
2021/05/25 07:57:18;;;;;;;2.95;0.90;;;;;;;;;;4936555;29;20027;-41
2021/05/25 07:59:45;;;;;;;2.30;0.80;;;;;;;;;;4936204;29;20031;-40
2021/05/25 08:02:12;;;;;;;3.33;0.90;;;;;;;;;;4936204;29;20062;-40
2021/05/25 08:04:39;;;;;;;1.92;0.70;;;;;;;;;;4935723;29;20047;-40
2021/05/25 08:07:06;;;;;;;2.55;1.02;;;;;;;;;;4935785;29;20027;-39
2021/05/25 08:09:33;;;;;;;3.00;1.00;;;;;;;;;;4935036;29;20103;-40
2021/05/25 08:12:00;;;;;;;4.70;1.00;;;;;;;;;;4934240;29;20047;-41
2021/05/25 08:14:27;;;;;;;2.28;0.90;;;;;;;;;;4936264;29;20376;-39
2021/05/25 08:17:03;;;;;;;4.07;0.88;;;;;;;;;;4935790;29;20075;-40
2021/05/25 08:19:31;;;;;;;4.10;0.98;;;;;;;;;;4935804;29;20036;-40
2021/05/25 08:21:58;;;;;;;2.10;0.90;;;;;;;;;;4935503;29;20599;-39
2021/05/25 08:24:25;;;;;;;2.08;0.70;;;;;;;;;;4936234;29;20058;-39
2021/05/25 08:26:53;;;;;;;1.85;0.90;;;;;;;;;;4935500;29;20492;-40
2021/05/25 08:29:20;;;;;;;2.35;0.80;;;;;;;;;;4935911;29;20024;-40
2021/05/25 08:31:47;;;;;;;1.42;0.63;;;;;;;;;;4934174;29;20365;-39
2021/05/25 08:34:14;;;;;;;2.67;1.05;;;;;;;;;;4935747;29;20020;-40
2021/05/25 08:36:41;;;;;;;2.15;0.80;;;;;;;;;;4935245;29;20035;-41
2021/05/25 08:39:08;;;;;;;2.80;0.70;;;;;;;;;;4935781;29;20020;-43
2021/05/25 08:41:36;;;;;;;1.15;0.60;;;;;;;;;;4935198;29;20211;-43
2021/05/25 08:44:05;;;;;;;2.17;0.70;;;;;;;;;;4935716;29;20019;-42
2021/05/25 08:46:33;;;;;;;3.25;0.77;;;;;;;;;;4935706;29;20031;-42
2021/05/25 08:49:00;;;;;;;2.63;0.80;;;;;;;;;;4935118;29;20066;-42
2021/05/25 08:51:27;;;;;;;1.38;0.57;;;;;;;;;;4935553;29;20051;-40
2021/05/25 08:53:54;;;;;;;3.13;0.80;;;;;;;;;;4935064;29;20471;-40
2021/05/25 08:56:21;;;;;;;1.05;0.70;;;;;;;;;;4935647;29;20027;-40
2021/05/25 08:58:48;;;;;;;2.00;0.82;;;;;;;;;;4935029;29;20078;-40
2021/05/25 09:01:15;;;;;;;2.40;0.60;;;;;;;;;;4935285;29;20115;-41
2021/05/25 09:03:58;;;;;;;1.65;0.57;;;;;;;;;;4934874;29;20661;-40
2021/05/25 09:06:41;;;;;;;3.90;0.82;;;;;;;;;;4935349;29;20043;-40
2021/05/25 09:09:10;;;;;;;2.35;1.00;;;;;;;;;;4934619;29;20027;-40
2021/05/25 09:11:58;;;;;;;2.15;0.70;;;;;;;;;;4935012;29;20063;-39
2021/05/25 09:14:26;;;;;;;3.30;1.15;;;;;;;;;;4933501;29;20480;-41
2021/05/25 09:17:13;;;;;;;1.48;0.55;;;;;;;;;;4935118;29;20079;-41
2021/05/25 09:19:47;;;;;;;1.90;0.80;;;;;;;;;;4934245;29;20024;-39
2021/05/25 09:22:32;;;;;;;4.80;0.60;;;;;;;;;;4935246;29;20035;-40
2021/05/25 09:25:05;;;;;;;1.55;0.68;;;;;;;;;;4934810;29;20024;-41
2021/05/25 09:27:36;;;;;;;1.63;0.60;;;;;;;;;;4935185;29;20035;-40
2021/05/25 09:30:15;;;;;;;2.15;1.10;;;;;;;;;;4934366;29;20043;-41
2021/05/25 09:32:53;;;;;;;1.20;0.50;;;;;;;;;;4935009;29;20031;-40
2021/05/25 09:35:22;;;;;;;1.75;0.70;;;;;;;;;;4934377;29;20050;-40
2021/05/25 09:37:56;;;;;;;3.60;0.60;;;;;;;;;;4934983;29;20132;-40
2021/05/25 09:40:26;;;;;;;1.77;0.70;;;;;;;;;;4934344;29;20132;-40
2021/05/25 09:42:56;;;;;;;1.80;0.77;;;;;;;;;;4934870;29;20035;-39
2021/05/25 09:45:23;;;;;;;2.40;0.60;;;;;;;;;;4934429;29;20020;-39
2021/05/25 09:47:52;;;;;;;1.10;0.63;;;;;;;;;;4934788;29;20024;-40
2021/05/25 09:50:21;;;;;;;1.48;0.60;;;;;;;;;;4934239;29;20083;-39
2021/05/25 09:53:05;;;;;;;1.33;0.50;;;;;;;;;;4934883;29;20036;-40
2021/05/25 09:55:33;;;;;;;3.63;0.70;;;;;;;;;;4934339;29;20048;-40
2021/05/25 09:58:00;;;;;;;2.58;0.80;;;;;;;;;;4934907;29;20027;-39
2021/05/25 10:00:31;;;;;;;0.68;0.50;;;;;;;;;;4933952;29;20058;-40
2021/05/25 10:03:13;;;;;;;1.10;0.60;;;;;;;;;;4934729;29;20034;-40
2021/05/25 10:05:41;;;;;;;1.33;0.57;;;;;;;;;;4934129;29;20362;-40
2021/05/25 10:08:08;;;;;;;2.67;0.50;;;;;;;;;;4934610;29;20432;-40
2021/05/25 10:10:35;;;;;;;1.52;0.70;;;;;;;;;;4932713;29;20043;-40
2021/05/25 10:13:03;;;;;;;1.33;0.50;;;;;;;;;;4934582;29;20023;-40
2021/05/25 10:15:30;;;;;;;1.55;0.60;;;;;;;;;;4934151;29;20031;-41
2021/05/25 10:20:29;;;;;;;1.40;0.60;;;;;;;;;;4933938;29;20034;-40
2021/05/25 10:22:57;;;;;;;1.00;0.50;;;;;;;;;;4934576;29;20027;-40
2021/05/25 10:25:26;;;;;;;1.55;0.68;;;;;;;;;;4934369;29;20024;-42
2021/05/25 10:27:53;;;;;;;1.30;0.63;;;;;;;;;;4935202;29;20047;-39
2021/05/25 10:30:26;;;;;;;2.42;0.57;;;;;;;;;;4938090;29;20034;-41
2021/05/25 10:33:13;;;;;;;2.20;0.60;;;;;;;;;;4937744;29;20476;-39
2021/05/25 10:35:49;;;;;;;2.38;0.50;;;;;;;;;;4937734;29;20111;-40
2021/05/25 10:38:17;;;;;;;1.77;0.60;;;;;;;;;;4937928;29;20020;-41
2021/05/25 10:40:48;;;;;;;1.55;0.65;;;;;;;;;;4937707;29;20042;-40
2021/05/25 10:43:33;;;;;;;3.50;0.55;;;;;;;;;;4937552;29;20024;-40
2021/05/25 10:46:13;;;;;;;0.70;0.40;;;;;;;;;;4937745;29;20502;-39
2021/05/25 10:48:55;;;;;;;1.33;0.60;;;;;;;;;;4937837;29;20098;-40
2021/05/25 10:51:22;;;;;;;0.40;0.35;;;;;;;;;;4937233;29;20429;-39
2021/05/25 10:54:18;;;;;;;0.98;0.60;;;;;;;;;;4935716;29;20472;-40
2021/05/25 10:56:48;;;;;;;0.60;0.40;;;;;;;;;;4932481;29;20074;-40
2021/05/25 10:59:16;;;;;;;1.50;0.70;;;;;;;;;;4926051;29;20036;-40
2021/05/25 11:01:44;;;;;;;2.42;0.68;;;;;;;;;;4936834;29;20034;-39
2021/05/25 11:04:12;;;;;;;1.90;0.63;;;;;;;;;;4937572;29;20023;-40
2021/05/25 11:06:39;;;;;;;0.82;0.50;;;;;;;;;;4937606;29;20522;-40
2021/05/25 11:09:28;;;;;;;1.85;0.55;;;;;;;;;;4936820;29;20032;-42
2021/05/25 11:12:14;;;;;;;1.02;0.40;;;;;;;;;;4936791;29;20138;-39
2021/05/25 11:14:59;;;;;;;3.03;0.45;;;;;;;;;;4937298;29;20032;-40
2021/05/25 11:17:30;;;;;;;1.23;0.57;;;;;;;;;;4936763;29;20024;-41
2021/05/25 11:20:10;;;;;;;3.17;0.60;;;;;;;;;;4937055;29;20027;-40
2021/05/25 11:22:42;;;;;;;1.60;0.70;;;;;;;;;;4936573;29;20119;-40
2021/05/25 11:25:10;;;;;;;0.83;0.40;;;;;;;;;;4937235;29;20034;-41
2021/05/25 11:27:45;;;;;;;1.38;0.40;;;;;;;;;;4936893;29;20028;-39
2021/05/25 11:30:24;;;;;;;1.10;0.52;;;;;;;;;;4937102;29;20036;-39
2021/05/25 11:32:55;;;;;;;2.75;0.60;;;;;;;;;;4936324;29;20052;-39
2021/05/25 11:35:26;;;;;;;0.80;0.53;;;;;;;;;;4936898;29;20028;-39
2021/05/25 11:37:55;;;;;;;3.17;0.50;;;;;;;;;;4936903;29;20338;-39
2021/05/25 11:40:26;;;;;;;1.35;0.40;;;;;;;;;;4935607;29;20043;-39
2021/05/25 11:42:55;;;;;;;0.82;0.60;;;;;;;;;;4936667;29;20043;-40
2021/05/25 11:45:23;;;;;;;2.22;0.50;;;;;;;;;;4936106;29;20111;-39
2021/05/25 11:47:58;;;;;;;2.55;0.40;;;;;;;;;;4936868;29;20659;-39
2021/05/25 11:50:25;;;;;;;2.28;0.50;;;;;;;;;;4936017;29;20024;-40
2021/05/25 11:52:54;;;;;;;1.85;0.75;;;;;;;;;;4936559;29;20392;-38
2021/05/25 11:55:22;;;;;;;1.92;0.50;;;;;;;;;;4936312;29;20067;-40
2021/05/25 11:57:50;;;;;;;2.15;0.50;;;;;;;;;;4936452;29;20031;-39
2021/05/25 12:00:18;;;;;;;1.60;0.40;;;;;;;;;;4935966;29;20032;-40
2021/05/25 12:02:46;;;;;;;1.27;0.57;;;;;;;;;;4936387;29;20032;-39
2021/05/25 12:05:19;;;;;;;1.23;0.50;;;;;;;;;;4936025;29;20016;-40
2021/05/25 12:07:47;;;;;;;0.82;0.40;;;;;;;;;;4936197;29;20032;-40
2021/05/25 12:10:15;;;;;;;2.38;0.47;;;;;;;;;;4935695;29;20051;-40
2021/05/25 12:12:46;;;;;;;1.38;0.50;;;;;;;;;;4935972;29;20102;-39
2021/05/25 12:15:17;;;;;;;1.70;0.40;;;;;;;;;;4935724;29;20019;-40
2021/05/25 12:17:46;;;;;;;1.30;0.60;;;;;;;;;;4936115;29;20453;-39
2021/05/25 12:20:17;;;;;;;2.38;0.85;;;;;;;;;;4935541;29;20052;-41
2021/05/25 12:22:45;;;;;;;1.10;0.57;;;;;;;;;;4935998;29;20099;-41
2021/05/25 12:25:15;;;;;;;1.10;0.50;;;;;;;;;;4935435;29;20027;-40
2021/05/25 12:27:43;;;;;;;0.98;0.45;;;;;;;;;;4935932;29;20106;-40
2021/05/25 12:30:10;;;;;;;1.35;0.52;;;;;;;;;;4935650;29;20035;-41
2021/05/25 12:32:37;;;;;;;0.52;0.40;;;;;;;;;;4935695;29;20035;-40
2021/05/25 12:35:05;;;;;;;1.13;0.70;;;;;;;;;;4935368;29;20539;-40
2021/05/25 12:37:32;;;;;;;1.45;0.50;;;;;;;;;;4936050;29;20065;-40
2021/05/25 12:40:06;;;;;;;1.08;0.70;;;;;;;;;;4935518;29;20391;-41
2021/05/25 12:42:41;;;;;;;0.88;0.55;;;;;;;;;;4935558;29;20067;-40
2021/05/25 12:45:16;;;;;;;0.90;0.50;;;;;;;;;;4935742;29;20114;-40
2021/05/25 12:48:09;;;;;;;2.60;0.70;;;;;;;;;;4935450;29;20353;-40
2021/05/25 12:50:38;;;;;;;1.40;0.60;;;;;;;;;;4931698;29;20035;-39
2021/05/25 12:53:05;;;;;;;0.82;0.50;;;;;;;;;;4935451;29;20027;-40
2021/05/25 12:55:32;;;;;;;1.13;0.50;;;;;;;;;;4935506;29;20032;-40
2021/05/25 12:58:00;;;;;;;1.85;0.60;;;;;;;;;;4934980;29;20114;-40
2021/05/25 13:00:28;;;;;;;1.52;0.57;;;;;;;;;;4935534;29;20107;-40
2021/05/25 13:02:56;;;;;;;1.63;0.50;;;;;;;;;;4934898;29;20031;-41
2021/05/25 13:05:25;;;;;;;1.77;0.50;;;;;;;;;;4935183;29;20023;-39
2021/05/25 13:08:00;;;;;;;0.80;0.40;;;;;;;;;;4934893;29;20055;-41
2021/05/25 13:10:28;;;;;;;0.77;0.50;;;;;;;;;;4935224;29;20052;-40
2021/05/25 13:12:56;;;;;;;1.25;0.50;;;;;;;;;;4934935;29;20134;-40
2021/05/25 13:15:43;;;;;;;0.80;0.40;;;;;;;;;;4935083;29;20038;-39
2021/05/25 13:18:16;;;;;;;2.60;0.50;;;;;;;;;;4934476;29;20032;-39
2021/05/25 13:20:45;;;;;;;1.23;0.40;;;;;;;;;;4934893;29;20064;-41
2021/05/25 13:23:25;;;;;;;0.52;0.30;;;;;;;;;;4934503;29;20369;-40
2021/05/25 13:29:01;;;;;;;3.15;0.50;;;;;;;;;;4923340;29;20036;-44
2021/05/25 13:31:34;;;;;;;1.65;0.40;;;;;;;;;;4928958;29;20026;-48
2021/05/25 13:34:01;;;;;;;0.90;0.40;;;;;;;;;;4929531;29;20070;-49
2021/05/25 13:36:31;;;;;;;0.93;0.50;;;;;;;;;;4934399;29;20047;-60
2021/05/25 13:38:59;;;;;;;0.63;0.40;;;;;;;;;;4933051;29;20028;-50
2021/05/25 13:41:26;;;;;;;1.15;0.40;;;;;;;;;;4933370;29;20069;-52
2021/05/25 13:43:55;;;;;;;1.95;0.35;;;;;;;;;;4932004;29;20051;-52
2021/05/25 13:46:25;;;;;;;2.25;0.40;;;;;;;;;;4933554;29;20544;-51
2021/05/25 13:48:53;;;;;;;0.90;0.40;;;;;;;;;;4933811;29;20473;-55
2021/05/25 13:51:20;;;;;;;0.63;0.32;;;;;;;;;;4934514;29;20152;-43
2021/05/25 13:53:47;;;;;;;0.85;0.50;;;;;;;;;;4933862;29;20023;-42
2021/05/25 13:56:18;;;;;;;0.85;0.40;;;;;;;;;;4932325;29;20593;-44
2021/05/25 13:58:46;;;;;;;1.73;0.50;;;;;;;;;;4933668;29;20028;-39
2021/05/25 14:03:50;;;;;;;0.80;0.30;;;;;;;;;;4924772;29;20036;-44
2021/05/25 14:06:17;;;;;;;1.17;0.40;;;;;;;;;;4924136;29;20488;-39
2021/05/25 14:08:45;;;;;;;1.65;0.30;;;;;;;;;;4916902;29;20038;-48
2021/05/25 14:11:12;;;;;;;3.03;0.50;;;;;;;;;;4924923;29;20048;-46
2021/05/25 14:13:40;;;;;;;1.92;0.43;;;;;;;;;;4918833;29;20024;-50
2021/05/25 14:16:07;;;;;;;1.10;0.45;;;;;;;;;;4925510;29;20028;-55
2021/05/25 14:18:34;;;;;;;1.83;0.50;;;;;;;;;;4928928;29;20465;-53
2021/05/25 14:21:02;;;;;;;0.85;0.35;;;;;;;;;;4928724;29;20097;-52
2021/05/25 14:26:34;;;;;;;1.38;0.30;;;;;;;;;;4919997;29;20047;-55
2021/05/25 14:29:01;;;;;;;1.05;0.40;;;;;;;;;;4925235;29;20058;-48
2021/05/25 14:31:28;;;;;;;5.35;0.50;;;;;;;;;;4933518;29;20019;-49
2021/05/25 14:33:55;;;;;;;3.45;0.40;;;;;;;;;;4931745;29;20114;-60
2021/05/25 14:36:23;;;;;;;1.77;0.40;;;;;;;;;;4929469;29;20592;-49
2021/05/25 14:38:50;;;;;;;4.63;0.50;;;;;;;;;;4929579;29;20035;-44
2021/05/25 14:41:17;;;;;;;1.92;0.57;;;;;;;;;;4936404;29;20032;-44
2021/05/25 14:43:44;;;;;;;4.53;0.60;;;;;;;;;;4934939;29;20031;-43
2021/05/25 14:46:11;;;;;;;5.18;0.60;;;;;;;;;;4935556;29;20043;-40
2021/05/25 14:48:39;;;;;;;7.50;0.60;;;;;;;;;;4937581;29;20495;-41
2021/05/25 14:51:06;;;;;;;7.07;0.52;;;;;;;;;;4936340;29;20031;-40
2021/05/25 14:53:42;;;;;;;4.65;0.55;;;;;;;;;;4936713;29;20028;-52
2021/05/25 14:56:18;;;;;;;5.13;0.50;;;;;;;;;;4933956;29;20032;-42
2021/05/25 14:58:49;;;;;;;3.22;0.63;;;;;;;;;;4935860;29;20130;-46
2021/05/25 15:01:18;;;;;;;3.85;0.40;;;;;;;;;;4934603;29;20103;-46
2021/05/25 15:03:58;;;;;;;4.28;0.77;;;;;;;;;;4936630;29;20023;-43